createdAt,value
2019-05-26T00:00:39.841Z,9.50
2019-05-26T00:03:08.280Z,12.53
2019-05-26T00:05:36.711Z,9.18
2019-05-26T00:08:05.157Z,10.85
2019-05-26T00:10:33.591Z,9.05
2019-05-26T00:13:02.361Z,8.00
2019-05-26T00:15:30.781Z,8.40
2019-05-26T00:17:59.235Z,8.35
2019-05-26T00:20:28.000Z,9.00
2019-05-26T00:22:56.452Z,8.68
2019-05-26T00:25:24.891Z,8.48
2019-05-26T00:27:53.338Z,9.10
2019-05-26T00:30:21.966Z,8.83
2019-05-26T00:32:50.408Z,8.95
2019-05-26T00:35:18.844Z,9.20
2019-05-26T00:37:49.844Z,8.88
2019-05-26T00:40:17.816Z,8.78
2019-05-26T00:42:46.261Z,7.78
2019-05-26T00:45:15.137Z,7.90
2019-05-26T00:47:43.593Z,7.83
2019-05-26T00:50:12.257Z,9.08
2019-05-26T00:52:40.767Z,7.20
2019-05-26T00:55:09.633Z,7.00
2019-05-26T00:57:38.501Z,7.97
2019-05-26T01:00:09.063Z,8.85
2019-05-26T01:02:37.819Z,8.18
2019-05-26T01:05:08.010Z,8.38
2019-05-26T01:07:37.561Z,8.53
2019-05-26T01:10:07.737Z,8.78
2019-05-26T01:12:36.193Z,8.83
2019-05-26T01:15:06.264Z,8.28
2019-05-26T01:17:34.718Z,8.85
2019-05-26T01:20:03.464Z,8.70
2019-05-26T01:22:32.032Z,8.63
2019-05-26T01:25:00.480Z,9.80
2019-05-26T01:27:31.635Z,8.85
2019-05-26T01:30:00.434Z,8.40
2019-05-26T01:32:28.869Z,9.55
2019-05-26T01:34:57.591Z,8.85
2019-05-26T01:37:26.488Z,8.15
2019-05-26T01:39:55.100Z,9.33
2019-05-26T01:42:23.580Z,8.33
2019-05-26T01:44:52.288Z,9.28
2019-05-26T01:47:20.979Z,10.03
2019-05-26T01:49:49.693Z,9.15
2019-05-26T01:52:18.140Z,9.05
2019-05-26T01:54:46.844Z,9.05
2019-05-26T01:57:15.529Z,10.95
2019-05-26T01:59:44.255Z,12.35
2019-05-26T02:02:12.700Z,9.63
2019-05-26T02:04:41.422Z,9.70
2019-05-26T02:07:10.200Z,9.85
2019-05-26T02:09:38.907Z,9.80
2019-05-26T02:12:07.491Z,10.48
2019-05-26T02:14:35.965Z,10.35
2019-05-26T02:17:04.951Z,11.35
2019-05-26T02:19:33.657Z,11.35
2019-05-26T02:22:02.444Z,11.25
2019-05-26T02:24:30.973Z,11.05
2019-05-26T02:26:59.698Z,10.23
2019-05-26T02:29:28.159Z,10.48
2019-05-26T02:31:56.925Z,9.98
2019-05-26T02:34:25.374Z,8.80
2019-05-26T02:36:53.811Z,9.70
2019-05-26T02:39:22.256Z,9.05
2019-05-26T02:41:50.800Z,11.12
2019-05-26T02:44:19.316Z,13.13
2019-05-26T02:46:48.001Z,11.30
2019-05-26T02:49:16.711Z,8.65
2019-05-26T02:51:45.154Z,10.10
2019-05-26T02:54:13.967Z,11.18
2019-05-26T02:56:42.751Z,13.75
2019-05-26T02:59:11.208Z,14.40
2019-05-26T03:01:58.260Z,15.98
2019-05-26T03:04:10.931Z,18.95
2019-05-26T03:06:41.170Z,22.75
2019-05-26T03:09:22.145Z,23.75
2019-05-26T03:11:42.805Z,21.73
2019-05-26T03:14:12.306Z,23.20
2019-05-26T03:16:43.507Z,27.55
2019-05-26T03:19:14.711Z,25.77
2019-05-26T03:21:44.815Z,28.02
2019-05-26T03:24:16.688Z,24.65
2019-05-26T03:26:45.307Z,29.63
2019-05-26T03:29:14.001Z,20.88
2019-05-26T03:31:42.460Z,17.95
2019-05-26T03:34:10.891Z,17.60
2019-05-26T03:36:39.348Z,17.40
2019-05-26T03:39:08.168Z,19.00
2019-05-26T03:41:36.616Z,18.00
2019-05-26T03:44:05.136Z,21.02
2019-05-26T03:46:33.588Z,19.37
2019-05-26T03:49:02.027Z,20.45
2019-05-26T03:51:30.491Z,19.42
2019-05-26T03:53:58.943Z,17.48
2019-05-26T03:56:27.381Z,17.92
2019-05-26T03:58:56.652Z,20.20
2019-05-26T04:01:25.097Z,20.62
2019-05-26T04:03:54.433Z,18.07
2019-05-26T04:06:22.896Z,16.75
2019-05-26T04:08:51.429Z,23.25
2019-05-26T04:11:19.937Z,19.50
2019-05-26T04:13:48.382Z,19.77
2019-05-26T04:16:16.840Z,19.50
2019-05-26T04:18:45.295Z,19.17
2019-05-26T04:21:14.108Z,18.77
2019-05-26T04:23:42.544Z,19.20
2019-05-26T04:26:11.002Z,19.37
2019-05-26T04:28:39.449Z,17.73
2019-05-26T04:31:07.917Z,19.55
2019-05-26T04:33:36.355Z,21.33
2019-05-26T04:36:04.943Z,21.12
2019-05-26T04:38:33.394Z,22.85
2019-05-26T04:41:01.855Z,23.62
2019-05-26T04:43:30.639Z,25.90
2019-05-26T04:45:59.435Z,25.52
2019-05-26T04:48:27.890Z,25.75
2019-05-26T04:50:56.396Z,28.25
2019-05-26T04:53:25.280Z,28.05
2019-05-26T04:55:54.069Z,30.30
2019-05-26T04:58:22.853Z,29.63
2019-05-26T05:00:51.654Z,66.12
2019-05-26T05:03:20.541Z,38.80
2019-05-26T05:05:48.978Z,44.50
2019-05-26T05:08:17.436Z,46.48
2019-05-26T05:10:45.877Z,38.20
2019-05-26T05:13:14.660Z,39.98
2019-05-26T05:15:43.106Z,29.90
2019-05-26T05:18:11.830Z,31.45
2019-05-26T05:20:40.711Z,31.87
2019-05-26T05:23:09.201Z,32.33
2019-05-26T05:25:37.642Z,31.35
2019-05-26T05:28:06.103Z,33.55
2019-05-26T05:30:34.540Z,29.07
2019-05-26T05:33:03.017Z,32.78
2019-05-26T05:35:31.455Z,33.30
2019-05-26T05:38:00.198Z,38.10
2019-05-26T05:40:28.646Z,32.23
2019-05-26T05:42:57.460Z,34.30
2019-05-26T05:45:26.254Z,29.70
2019-05-26T05:47:55.150Z,33.02
2019-05-26T05:50:23.926Z,32.15
2019-05-26T05:52:52.822Z,31.70
2019-05-26T05:55:21.660Z,31.70
2019-05-26T05:57:50.178Z,31.82
2019-05-26T06:00:19.433Z,29.23
2019-05-26T06:02:48.194Z,33.88
2019-05-26T06:05:17.073Z,29.80
2019-05-26T06:07:45.621Z,32.03
2019-05-26T06:10:14.433Z,30.82
2019-05-26T06:12:42.886Z,29.85
2019-05-26T06:15:12.934Z,29.80
2019-05-26T06:17:42.551Z,28.98
2019-05-26T06:20:11.164Z,31.57
2019-05-26T06:22:39.609Z,27.22
2019-05-26T06:25:08.609Z,28.15
2019-05-26T06:27:37.119Z,27.82
2019-05-26T06:30:07.817Z,27.13
2019-05-26T06:32:36.264Z,24.90
2019-05-26T06:35:05.869Z,28.15
2019-05-26T06:37:34.577Z,27.37
2019-05-26T06:40:03.607Z,27.73
2019-05-26T06:42:32.078Z,26.90
2019-05-26T06:45:00.860Z,25.88
2019-05-26T06:47:29.290Z,26.20
2019-05-26T06:49:57.754Z,27.50
2019-05-26T06:52:26.514Z,24.80
2019-05-26T06:54:54.979Z,27.73
2019-05-26T06:57:23.468Z,25.50
2019-05-26T06:59:52.033Z,28.12
2019-05-26T07:02:20.550Z,24.30
2019-05-26T07:04:49.008Z,25.90
2019-05-26T07:07:17.454Z,28.23
2019-05-26T07:09:45.981Z,25.27
2019-05-26T07:12:14.416Z,24.80
2019-05-26T07:14:42.872Z,27.35
2019-05-26T07:17:11.623Z,25.02
2019-05-26T07:19:40.408Z,23.90
2019-05-26T07:22:08.853Z,23.80
2019-05-26T07:24:37.318Z,24.60
2019-05-26T07:27:06.010Z,23.57
2019-05-26T07:29:34.866Z,23.95
2019-05-26T07:32:03.848Z,23.57
2019-05-26T07:34:32.561Z,26.37
2019-05-26T07:37:01.005Z,25.55
2019-05-26T07:39:29.529Z,24.82
2019-05-26T07:42:09.306Z,21.07
2019-05-26T07:44:28.201Z,21.45
2019-05-26T07:46:56.695Z,21.48
2019-05-26T07:49:25.179Z,20.80
2019-05-26T07:51:53.860Z,24.57
2019-05-26T07:54:25.577Z,20.05
2019-05-26T07:56:53.054Z,22.40
2019-05-26T07:59:21.536Z,23.22
2019-05-26T08:01:49.992Z,22.85
2019-05-26T08:04:18.452Z,23.30
2019-05-26T08:06:46.912Z,24.75
2019-05-26T08:09:15.685Z,24.70
2019-05-26T08:11:44.149Z,23.62
2019-05-26T08:14:12.576Z,26.95
2019-05-26T08:16:41.043Z,23.75
2019-05-26T08:19:09.481Z,29.27
2019-05-26T08:21:37.964Z,23.55
2019-05-26T08:24:06.766Z,24.05
2019-05-26T08:26:35.556Z,23.38
2019-05-26T08:29:04.029Z,22.40
2019-05-26T08:31:32.482Z,22.98
2019-05-26T08:34:01.326Z,22.95
2019-05-26T08:36:30.197Z,21.33
2019-05-26T08:38:58.652Z,22.02
2019-05-26T08:41:27.112Z,22.27
2019-05-26T08:43:56.017Z,25.57
2019-05-26T08:46:24.467Z,28.57
2019-05-26T08:48:53.526Z,25.32
2019-05-26T08:51:22.311Z,25.12
2019-05-26T08:53:51.097Z,24.98
2019-05-26T08:56:19.559Z,22.20
2019-05-26T08:58:48.372Z,23.87
2019-05-26T09:01:16.833Z,24.60
2019-05-26T09:03:45.276Z,23.62
2019-05-26T09:06:13.724Z,20.52
2019-05-26T09:08:42.162Z,22.75
2019-05-26T09:11:10.617Z,22.45
2019-05-26T09:13:39.066Z,21.45
2019-05-26T09:16:07.842Z,22.42
2019-05-26T09:18:36.632Z,24.00
2019-05-26T09:21:05.081Z,23.00
2019-05-26T09:23:33.538Z,22.62
2019-05-26T09:26:02.051Z,21.05
2019-05-26T09:28:30.508Z,21.00
2019-05-26T09:30:58.959Z,18.60
2019-05-26T09:33:27.442Z,18.37
2019-05-26T09:35:55.892Z,23.90
2019-05-26T09:38:24.369Z,19.27
2019-05-26T09:40:53.184Z,22.32
2019-05-26T09:43:21.715Z,20.08
2019-05-26T09:45:50.415Z,18.40
2019-05-26T09:48:19.138Z,19.20
2019-05-26T09:50:47.905Z,19.42
2019-05-26T09:53:17.128Z,16.95
2019-05-26T09:55:45.590Z,16.85
2019-05-26T09:58:14.043Z,15.45
2019-05-26T10:00:44.382Z,15.63
2019-05-26T10:03:13.560Z,12.65
2019-05-26T10:05:42.591Z,12.55
2019-05-26T10:08:11.031Z,9.48
2019-05-26T10:10:39.505Z,10.58
2019-05-26T10:13:07.936Z,8.33
2019-05-26T10:15:36.377Z,6.40
2019-05-26T10:18:05.176Z,5.20
2019-05-26T10:20:33.624Z,10.10
2019-05-26T10:23:02.078Z,9.48
2019-05-26T10:25:30.516Z,8.98
2019-05-26T10:27:59.316Z,9.30
2019-05-26T10:30:27.762Z,8.55
2019-05-26T10:32:56.214Z,7.78
2019-05-26T10:35:24.645Z,8.35
2019-05-26T10:37:53.091Z,7.25
2019-05-26T10:40:21.551Z,7.53
2019-05-26T10:42:50.245Z,7.05
2019-05-26T10:45:18.886Z,5.47
2019-05-26T10:47:47.325Z,7.33
2019-05-26T10:50:17.481Z,5.15
2019-05-26T10:52:45.900Z,5.70
2019-05-26T10:55:14.789Z,5.22
2019-05-26T10:57:43.471Z,5.78
2019-05-26T11:00:12.175Z,4.10
2019-05-26T11:02:40.610Z,3.77
2019-05-26T11:05:10.036Z,3.87
2019-05-26T11:07:38.489Z,4.50
2019-05-26T11:10:08.030Z,3.67
2019-05-26T11:12:36.546Z,4.20
2019-05-26T11:15:09.681Z,4.03
2019-05-26T11:17:38.212Z,3.20
2019-05-26T11:20:11.186Z,3.42
2019-05-26T11:22:39.650Z,4.17
2019-05-26T11:25:08.423Z,3.80
2019-05-26T11:27:36.875Z,3.02
2019-05-26T11:30:11.182Z,2.77
2019-05-26T11:32:39.920Z,2.75
2019-05-26T11:35:09.810Z,2.15
2019-05-26T11:37:38.263Z,2.62
2019-05-26T11:40:07.797Z,2.47
2019-05-26T11:42:36.402Z,1.72
2019-05-26T11:45:07.437Z,5.00
2019-05-26T11:47:36.236Z,2.77
2019-05-26T11:50:08.095Z,5.22
2019-05-26T11:52:36.584Z,4.10
2019-05-26T11:55:06.940Z,2.77
2019-05-26T11:57:36.646Z,2.52
2019-05-26T12:00:08.393Z,2.83
2019-05-26T12:02:37.405Z,2.50
2019-05-26T12:05:07.568Z,2.70
2019-05-26T12:07:36.580Z,2.45
2019-05-26T12:10:08.321Z,2.40
2019-05-26T12:12:36.836Z,4.58
2019-05-26T12:15:12.659Z,3.30
2019-05-26T12:17:41.089Z,3.37
2019-05-26T12:20:11.023Z,3.40
2019-05-26T12:22:39.460Z,2.90
2019-05-26T12:25:09.292Z,3.17
2019-05-26T12:27:38.029Z,2.62
2019-05-26T12:30:07.837Z,4.40
2019-05-26T12:32:36.636Z,2.75
2019-05-26T12:35:08.664Z,3.12
2019-05-26T12:37:37.093Z,3.45
2019-05-26T12:40:08.023Z,2.52
2019-05-26T12:42:36.541Z,2.50
2019-05-26T12:45:08.759Z,2.65
2019-05-26T12:47:37.281Z,3.25
2019-05-26T12:50:07.821Z,2.98
2019-05-26T12:52:36.578Z,3.77
2019-05-26T12:55:09.468Z,2.72
2019-05-26T12:57:38.747Z,2.40
2019-05-26T13:00:09.122Z,3.05
2019-05-26T13:02:37.867Z,2.62
2019-05-26T13:05:08.803Z,3.62
2019-05-26T13:07:37.396Z,2.77
2019-05-26T13:10:07.185Z,3.35
2019-05-26T13:12:35.925Z,3.15
2019-05-26T13:15:09.810Z,4.90
2019-05-26T13:17:38.578Z,2.17
2019-05-26T13:20:08.932Z,2.37
2019-05-26T13:22:37.688Z,2.67
2019-05-26T13:25:08.995Z,2.15
2019-05-26T13:27:37.434Z,2.10
2019-05-26T13:30:12.949Z,3.80
2019-05-26T13:32:41.631Z,2.30
2019-05-26T13:35:10.722Z,2.70
2019-05-26T13:37:39.421Z,2.25
2019-05-26T13:40:09.515Z,1.98
2019-05-26T13:42:38.211Z,2.62
2019-05-26T13:45:21.719Z,2.20
2019-05-26T13:47:40.748Z,2.00
2019-05-26T13:50:10.334Z,3.45
2019-05-26T13:52:38.907Z,3.90
2019-05-26T13:55:09.897Z,3.50
2019-05-26T13:57:38.350Z,4.45
2019-05-26T14:00:09.057Z,3.67
2019-05-26T14:02:37.675Z,1.60
2019-05-26T14:05:08.519Z,1.62
2019-05-26T14:07:36.978Z,2.62
2019-05-26T14:10:07.673Z,3.72
2019-05-26T14:12:36.205Z,3.25
2019-05-26T14:15:09.514Z,2.35
2019-05-26T14:17:39.372Z,3.37
2019-05-26T14:20:09.135Z,1.62
2019-05-26T14:22:37.646Z,4.58
2019-05-26T14:25:07.035Z,4.97
2019-05-26T14:27:35.495Z,2.10
2019-05-26T14:30:06.328Z,3.05
2019-05-26T14:32:34.853Z,2.40
2019-05-26T14:35:04.433Z,2.40
2019-05-26T14:37:32.893Z,3.40
2019-05-26T14:40:01.330Z,2.75
2019-05-26T14:42:30.041Z,2.50
2019-05-26T14:44:58.521Z,2.40
2019-05-26T14:47:26.955Z,2.40
2019-05-26T14:49:55.693Z,3.15
2019-05-26T14:52:24.185Z,2.25
2019-05-26T14:54:52.647Z,3.87
2019-05-26T14:57:21.079Z,3.05
2019-05-26T14:59:49.791Z,2.10
2019-05-26T15:02:18.312Z,2.08
2019-05-26T15:04:46.775Z,3.12
2019-05-26T15:07:15.200Z,3.00
2019-05-26T15:09:43.947Z,2.83
2019-05-26T15:12:12.369Z,2.60
2019-05-26T15:14:40.811Z,3.30
2019-05-26T15:17:09.271Z,2.00
2019-05-26T15:19:37.974Z,2.75
2019-05-26T15:22:06.416Z,3.85
2019-05-26T15:24:35.100Z,4.47
2019-05-26T15:27:03.617Z,2.62
2019-05-26T15:29:32.306Z,2.80
2019-05-26T15:32:02.764Z,4.47
2019-05-26T15:34:32.456Z,3.15
2019-05-26T15:37:01.248Z,5.12
2019-05-26T15:39:29.945Z,3.60
2019-05-26T15:41:58.377Z,3.00
2019-05-26T15:44:27.095Z,2.87
2019-05-26T15:46:55.521Z,5.00
2019-05-26T15:49:24.050Z,2.50
2019-05-26T15:51:52.486Z,4.22
2019-05-26T15:54:21.330Z,3.55
2019-05-26T15:56:49.769Z,3.00
2019-05-26T15:59:18.221Z,3.45
2019-05-26T16:01:47.662Z,4.10
2019-05-26T16:04:16.506Z,3.17
2019-05-26T16:06:45.209Z,4.55
2019-05-26T16:09:13.921Z,3.40
2019-05-26T16:11:43.557Z,6.08
2019-05-26T16:14:12.515Z,4.60
2019-05-26T16:16:41.981Z,5.20
2019-05-26T16:19:10.694Z,3.83
2019-05-26T16:21:39.149Z,3.30
2019-05-26T16:24:07.927Z,4.08
2019-05-26T16:26:36.389Z,4.15
2019-05-26T16:29:05.396Z,3.42
2019-05-26T16:31:33.918Z,3.08
2019-05-26T16:34:02.386Z,3.20
2019-05-26T16:36:30.848Z,3.25
2019-05-26T16:38:59.301Z,4.17
2019-05-26T16:41:28.042Z,4.67
2019-05-26T16:43:56.475Z,4.47
2019-05-26T16:46:24.909Z,3.50
2019-05-26T16:48:54.787Z,4.22
2019-05-26T16:51:23.538Z,3.65
2019-05-26T16:53:52.237Z,6.60
2019-05-26T16:56:20.688Z,4.62
2019-05-26T16:58:49.162Z,3.42
2019-05-26T17:01:17.877Z,3.60
2019-05-26T17:03:46.580Z,4.62
2019-05-26T17:06:15.280Z,3.77
2019-05-26T17:08:43.739Z,4.08
2019-05-26T17:11:12.183Z,5.33
2019-05-26T17:13:40.921Z,3.17
2019-05-26T17:16:09.348Z,3.10
2019-05-26T17:18:38.055Z,3.25
2019-05-26T17:21:06.836Z,4.30
2019-05-26T17:23:35.265Z,3.85
2019-05-26T17:26:03.794Z,3.35
2019-05-26T17:28:32.485Z,3.85
2019-05-26T17:31:01.184Z,4.78
2019-05-26T17:33:29.622Z,6.60
2019-05-26T17:35:58.347Z,4.10
2019-05-26T17:38:26.783Z,4.00
2019-05-26T17:40:55.845Z,4.05
2019-05-26T17:43:24.554Z,4.72
2019-05-26T17:45:53.240Z,3.92
2019-05-26T17:48:21.698Z,4.03
2019-05-26T17:50:50.121Z,3.35
2019-05-26T17:53:18.586Z,3.17
2019-05-26T17:55:47.021Z,4.20
2019-05-26T17:58:15.476Z,3.50
2019-05-26T18:00:44.176Z,4.17
2019-05-26T18:03:12.873Z,3.65
2019-05-26T18:05:41.372Z,5.20
2019-05-26T18:08:09.824Z,4.28
2019-05-26T18:10:38.553Z,5.47
2019-05-26T18:13:07.021Z,4.67
2019-05-26T18:15:35.723Z,4.40
2019-05-26T18:18:04.346Z,4.03
2019-05-26T18:20:32.838Z,3.83
2019-05-26T18:23:01.282Z,4.30
2019-05-26T18:25:29.733Z,4.58
2019-05-26T18:27:58.422Z,4.15
2019-05-26T18:30:26.873Z,4.12
2019-05-26T18:32:55.564Z,3.70
2019-05-26T18:35:24.276Z,4.03
2019-05-26T18:37:53.291Z,3.25
2019-05-26T18:40:21.992Z,3.92
2019-05-26T18:42:50.430Z,4.05
2019-05-26T18:45:19.212Z,5.47
2019-05-26T18:48:01.748Z,5.28
2019-05-26T18:50:18.349Z,4.47
2019-05-26T18:52:47.047Z,4.03
2019-05-26T18:55:15.640Z,6.70
2019-05-26T18:57:44.105Z,4.12
2019-05-26T19:00:12.785Z,4.78
2019-05-26T19:02:41.237Z,5.40
2019-05-26T19:05:09.815Z,5.05
2019-05-26T19:07:38.531Z,5.85
2019-05-26T19:10:07.605Z,5.50
2019-05-26T19:12:36.063Z,5.42
2019-05-26T19:15:06.806Z,5.65
2019-05-26T19:17:35.270Z,6.17
2019-05-26T19:20:15.932Z,6.92
2019-05-26T19:22:37.941Z,5.50
2019-05-26T19:25:07.014Z,6.65
2019-05-26T19:27:35.742Z,6.70
2019-05-26T19:30:08.216Z,7.22
2019-05-26T19:32:37.089Z,6.83
2019-05-26T19:35:07.477Z,6.85
2019-05-26T19:37:36.180Z,8.70
2019-05-26T19:40:08.454Z,8.00
2019-05-26T19:42:36.888Z,8.80
2019-05-26T19:45:08.803Z,8.13
2019-05-26T19:47:37.312Z,6.60
2019-05-26T19:50:07.703Z,8.38
2019-05-26T19:52:36.152Z,7.15
2019-05-26T19:55:06.915Z,6.20
2019-05-26T19:57:35.350Z,5.78
2019-05-26T20:00:09.621Z,6.40
2019-05-26T20:02:38.612Z,7.12
2019-05-26T20:05:09.058Z,7.92
2019-05-26T20:07:37.493Z,6.00
2019-05-26T20:10:08.250Z,7.05
2019-05-26T20:12:36.685Z,6.70
2019-05-26T20:15:10.672Z,7.28
2019-05-26T20:17:39.197Z,5.92
2019-05-26T20:20:08.965Z,6.10
2019-05-26T20:22:37.755Z,6.17
2019-05-26T20:25:08.404Z,7.15
2019-05-26T20:27:36.857Z,9.18
2019-05-26T20:30:07.730Z,7.67
2019-05-26T20:32:36.786Z,6.00
2019-05-26T20:35:07.325Z,6.05
2019-05-26T20:37:35.799Z,6.10
2019-05-26T20:40:09.052Z,6.72
2019-05-26T20:42:37.860Z,6.78
2019-05-26T20:45:08.292Z,6.35
2019-05-26T20:47:36.725Z,5.80
2019-05-26T20:50:10.180Z,6.45
2019-05-26T20:52:38.620Z,6.00
2019-05-26T20:55:08.115Z,6.00
2019-05-26T20:57:36.541Z,5.37
2019-05-26T21:00:09.835Z,5.50
2019-05-26T21:02:38.938Z,7.00
2019-05-26T21:05:08.533Z,5.83
2019-05-26T21:07:37.110Z,5.80
2019-05-26T21:10:06.436Z,5.62
2019-05-26T21:12:35.201Z,6.90
2019-05-26T21:15:05.166Z,6.75
2019-05-26T21:17:33.612Z,7.00
2019-05-26T21:20:02.384Z,7.03
2019-05-26T21:22:30.834Z,9.15
2019-05-26T21:24:59.547Z,6.75
2019-05-26T21:27:28.081Z,5.83
2019-05-26T21:29:59.606Z,6.53
2019-05-26T21:32:31.293Z,5.72
2019-05-26T21:34:58.497Z,6.50
2019-05-26T21:37:26.956Z,6.65
2019-05-26T21:39:55.393Z,8.80
2019-05-26T21:42:23.866Z,6.90
2019-05-26T21:44:52.315Z,7.60
2019-05-26T21:47:20.750Z,8.75
2019-05-26T21:49:49.262Z,7.67
2019-05-26T21:52:17.967Z,9.40
2019-05-26T21:54:46.423Z,7.25
2019-05-26T21:57:14.854Z,7.17
2019-05-26T21:59:43.326Z,7.40
2019-05-26T22:02:11.761Z,6.50
2019-05-26T22:04:40.217Z,7.97
2019-05-26T22:07:08.663Z,9.65
2019-05-26T22:09:37.137Z,8.85
2019-05-26T22:12:05.557Z,6.37
2019-05-26T22:14:34.240Z,7.45
2019-05-26T22:17:02.997Z,6.65
2019-05-26T22:19:31.428Z,8.53
2019-05-26T22:21:59.887Z,7.00
2019-05-26T22:24:28.633Z,7.00
2019-05-26T22:26:57.416Z,7.10
2019-05-26T22:29:25.848Z,6.47
2019-05-26T22:31:54.300Z,6.25
2019-05-26T22:34:23.070Z,6.80
2019-05-26T22:36:51.865Z,6.15
2019-05-26T22:39:20.291Z,6.87
2019-05-26T22:41:48.996Z,6.97
2019-05-26T22:44:17.712Z,7.33
2019-05-26T22:46:46.245Z,6.30
2019-05-26T22:49:14.686Z,5.67
2019-05-26T22:51:43.154Z,6.10
2019-05-26T22:54:11.722Z,5.90
2019-05-26T22:56:40.176Z,7.35
2019-05-26T22:59:08.610Z,6.92
2019-05-26T23:01:37.132Z,6.80
2019-05-26T23:04:05.581Z,6.00
2019-05-26T23:06:34.019Z,8.58
2019-05-26T23:09:02.828Z,7.00
2019-05-26T23:11:31.616Z,6.87
2019-05-26T23:14:00.408Z,7.08
2019-05-26T23:16:28.908Z,6.95
2019-05-26T23:18:57.388Z,6.15
2019-05-26T23:21:26.174Z,6.45
2019-05-26T23:23:54.938Z,6.50
2019-05-26T23:26:23.735Z,6.78
2019-05-26T23:28:52.173Z,9.15
2019-05-26T23:31:20.655Z,6.78
2019-05-26T23:33:49.491Z,6.28
2019-05-26T23:36:18.269Z,7.50
2019-05-26T23:38:47.062Z,7.10
2019-05-26T23:41:15.525Z,8.23
2019-05-26T23:43:44.337Z,8.15
2019-05-26T23:46:12.774Z,6.42
2019-05-26T23:48:41.499Z,8.03
2019-05-26T23:51:09.940Z,7.47
2019-05-26T23:53:38.665Z,7.28
2019-05-26T23:56:07.097Z,10.82
2019-05-26T23:58:35.835Z,6.85
